createdAt,value
2023-04-23T00:00:41.641Z,7.65
2023-04-23T00:03:15.634Z,7.60
2023-04-23T00:05:51.045Z,7.59
2023-04-23T00:08:22.447Z,7.56
2023-04-23T00:10:51.881Z,7.50
2023-04-23T00:13:21.925Z,7.44
2023-04-23T00:15:51.842Z,7.39
2023-04-23T00:18:22.076Z,7.37
2023-04-23T00:20:54.102Z,7.28
2023-04-23T00:23:22.964Z,7.29
2023-04-23T00:25:55.579Z,7.15
2023-04-23T00:28:26.461Z,7.23
2023-04-23T00:30:59.062Z,7.15
2023-04-23T00:33:29.824Z,7.16
2023-04-23T00:36:01.026Z,7.19
2023-04-23T00:38:32.040Z,7.18
2023-04-23T00:41:00.735Z,7.16
2023-04-23T00:43:31.180Z,7.19
2023-04-23T00:46:02.457Z,7.19
2023-04-23T00:48:40.140Z,7.18
2023-04-23T00:51:14.175Z,7.19
2023-04-23T00:53:44.522Z,7.13
2023-04-23T00:56:13.904Z,7.03
2023-04-23T00:58:44.458Z,7.13
2023-04-23T01:01:14.253Z,7.11
2023-04-23T01:03:44.740Z,6.98
2023-04-23T01:06:15.056Z,6.94
2023-04-23T01:08:45.032Z,6.88
2023-04-23T01:11:16.291Z,6.93
2023-04-23T01:13:45.247Z,6.81
2023-04-23T01:16:14.213Z,6.91
2023-04-23T01:18:43.454Z,6.81
2023-04-23T01:21:15.183Z,6.84
2023-04-23T01:23:45.388Z,6.83
2023-04-23T01:26:15.027Z,6.81
2023-04-23T01:28:45.837Z,6.72
2023-04-23T01:31:15.755Z,6.80
2023-04-23T01:33:46.751Z,6.65
2023-04-23T01:36:16.174Z,6.69
2023-04-23T01:38:46.407Z,6.64
2023-04-23T01:41:15.497Z,6.65
2023-04-23T01:43:44.464Z,6.63
2023-04-23T01:46:13.393Z,6.54
2023-04-23T01:48:43.324Z,6.57
2023-04-23T01:51:12.054Z,6.59
2023-04-23T01:53:40.849Z,6.53
2023-04-23T01:56:11.792Z,6.61
2023-04-23T01:58:40.527Z,6.54
2023-04-23T02:01:09.431Z,6.58
2023-04-23T02:03:38.323Z,6.46
2023-04-23T02:06:07.635Z,6.48
2023-04-23T02:08:37.254Z,6.47
2023-04-23T02:11:07.700Z,6.48
2023-04-23T02:13:38.377Z,6.51
2023-04-23T02:16:08.612Z,6.56
2023-04-23T02:18:37.325Z,6.45
2023-04-23T02:21:06.663Z,6.39
2023-04-23T02:23:35.929Z,6.44
2023-04-23T02:26:04.660Z,6.52
2023-04-23T02:28:33.454Z,6.45
2023-04-23T02:31:03.682Z,6.52
2023-04-23T02:33:32.322Z,6.48
2023-04-23T02:36:01.103Z,6.52
2023-04-23T02:38:29.779Z,6.61
2023-04-23T02:40:58.431Z,6.53
2023-04-23T02:43:27.051Z,6.53
2023-04-23T02:45:55.698Z,6.53
2023-04-23T02:48:27.352Z,6.52
2023-04-23T02:50:56.074Z,6.58
2023-04-23T02:53:24.717Z,6.65
2023-04-23T02:55:53.325Z,6.80
2023-04-23T02:58:22.093Z,6.98
2023-04-23T03:00:53.214Z,7.19
2023-04-23T03:03:26.734Z,7.34
2023-04-23T03:05:59.767Z,7.39
2023-04-23T03:08:32.935Z,7.45
2023-04-23T03:11:04.889Z,7.38
2023-04-23T03:13:36.025Z,7.35
2023-04-23T03:16:09.710Z,7.35
2023-04-23T03:18:40.961Z,7.31
2023-04-23T03:21:12.202Z,7.32
2023-04-23T03:23:44.772Z,7.31
2023-04-23T03:26:16.630Z,7.26
2023-04-23T03:28:46.096Z,7.35
2023-04-23T03:31:15.420Z,7.31
2023-04-23T03:34:04.823Z,7.34
2023-04-23T03:36:38.352Z,7.35
2023-04-23T03:39:09.687Z,7.36
2023-04-23T03:41:51.485Z,7.39
2023-04-23T03:44:24.848Z,7.44
2023-04-23T03:46:54.989Z,7.51
2023-04-23T03:49:24.068Z,7.47
2023-04-23T03:51:54.110Z,7.49
2023-04-23T03:54:24.668Z,7.54
2023-04-23T03:57:22.855Z,7.59
2023-04-23T04:00:08.814Z,7.63
2023-04-23T04:02:42.940Z,7.68
2023-04-23T04:05:12.879Z,7.63
2023-04-23T04:07:43.334Z,7.51
2023-04-23T04:10:12.671Z,7.70
2023-04-23T04:12:42.173Z,7.78
2023-04-23T04:15:12.895Z,7.82
2023-04-23T04:17:41.686Z,7.96
2023-04-23T04:20:12.221Z,7.99
2023-04-23T04:22:42.572Z,8.05
2023-04-23T04:25:12.373Z,8.12
2023-04-23T04:27:41.535Z,8.14
2023-04-23T04:30:11.697Z,8.21
2023-04-23T04:32:42.255Z,8.29
2023-04-23T04:35:12.843Z,8.36
2023-04-23T04:37:43.926Z,8.47
2023-04-23T04:40:15.244Z,8.61
2023-04-23T04:42:43.970Z,8.71
2023-04-23T04:45:13.680Z,8.77
2023-04-23T04:47:42.814Z,8.89
2023-04-23T04:50:12.964Z,8.99
2023-04-23T04:52:43.206Z,9.05
2023-04-23T04:55:11.930Z,9.15
2023-04-23T04:57:40.516Z,9.32
2023-04-23T05:00:24.387Z,9.38
2023-04-23T05:02:53.436Z,9.47
2023-04-23T05:05:24.693Z,9.58
2023-04-23T05:07:55.643Z,9.66
2023-04-23T05:10:24.414Z,9.80
2023-04-23T05:12:53.746Z,9.92
2023-04-23T05:15:25.178Z,9.91
2023-04-23T05:18:13.020Z,9.95
2023-04-23T05:20:48.095Z,10.10
2023-04-23T05:23:20.147Z,10.24
2023-04-23T05:25:50.667Z,10.30
2023-04-23T05:28:20.110Z,10.44
2023-04-23T05:30:49.005Z,10.53
2023-04-23T05:33:17.893Z,10.59
2023-04-23T05:35:46.803Z,10.76
2023-04-23T05:38:15.499Z,10.85
2023-04-23T05:40:45.674Z,11.03
2023-04-23T05:43:14.624Z,11.16
2023-04-23T05:45:43.787Z,11.38
2023-04-23T05:48:12.531Z,11.43
2023-04-23T05:50:41.503Z,11.57
2023-04-23T05:53:10.268Z,11.71
2023-04-23T05:55:38.911Z,11.73
2023-04-23T05:58:09.072Z,11.90
2023-04-23T06:00:37.838Z,12.04
2023-04-23T06:03:06.589Z,12.18
2023-04-23T06:05:36.314Z,12.28
2023-04-23T06:08:05.213Z,12.36
2023-04-23T06:10:34.147Z,12.46
2023-04-23T06:13:02.892Z,12.57
2023-04-23T06:15:32.971Z,12.67
2023-04-23T06:18:01.650Z,12.84
2023-04-23T06:20:31.702Z,12.92
2023-04-23T06:23:00.404Z,12.97
2023-04-23T06:25:29.310Z,13.09
2023-04-23T06:27:59.102Z,13.24
2023-04-23T06:30:32.722Z,13.38
2023-04-23T06:33:03.802Z,13.49
2023-04-23T06:35:32.671Z,13.55
2023-04-23T06:38:01.428Z,13.62
2023-04-23T06:40:30.109Z,13.72
2023-04-23T06:42:58.812Z,13.79
2023-04-23T06:46:00.988Z,13.93
2023-04-23T06:48:29.678Z,14.00
2023-04-23T06:50:58.616Z,14.11
2023-04-23T06:53:27.381Z,14.31
2023-04-23T06:55:56.065Z,14.40
2023-04-23T06:58:31.140Z,14.53
2023-04-23T07:01:04.365Z,14.60
2023-04-23T07:03:36.518Z,14.74
2023-04-23T07:06:05.729Z,14.78
2023-04-23T07:08:34.517Z,14.83
2023-04-23T07:11:03.930Z,14.86
2023-04-23T07:13:32.709Z,14.95
2023-04-23T07:16:02.847Z,15.04
2023-04-23T07:18:31.594Z,15.09
2023-04-23T07:21:00.462Z,15.20
2023-04-23T07:23:29.115Z,15.31
2023-04-23T07:25:58.008Z,15.42
2023-04-23T07:28:26.958Z,15.49
2023-04-23T07:30:56.200Z,15.55
2023-04-23T07:33:26.575Z,15.62
2023-04-23T07:35:55.263Z,15.70
2023-04-23T07:38:23.983Z,15.71
2023-04-23T07:40:52.742Z,15.74
2023-04-23T07:43:21.498Z,15.85
2023-04-23T07:45:50.342Z,15.88
2023-04-23T07:48:19.111Z,15.94
2023-04-23T07:50:49.270Z,16.02
2023-04-23T07:53:18.316Z,16.09
2023-04-23T07:55:47.219Z,16.14
2023-04-23T07:58:16.198Z,16.19
2023-04-23T08:00:45.408Z,16.25
2023-04-23T08:03:14.303Z,16.30
2023-04-23T08:05:43.186Z,16.38
2023-04-23T08:08:14.261Z,16.37
2023-04-23T08:10:43.179Z,16.49
2023-04-23T08:13:12.366Z,16.60
2023-04-23T08:15:41.185Z,16.69
2023-04-23T08:18:09.876Z,16.72
2023-04-23T08:20:38.604Z,16.86
2023-04-23T08:23:07.762Z,16.90
2023-04-23T08:25:37.879Z,16.93
2023-04-23T08:28:06.696Z,16.97
2023-04-23T08:30:35.558Z,17.02
2023-04-23T08:33:20.573Z,17.06
2023-04-23T08:35:49.423Z,17.15
2023-04-23T08:38:18.156Z,17.17
2023-04-23T08:40:50.715Z,17.27
2023-04-23T08:43:21.713Z,17.26
2023-04-23T08:45:55.200Z,17.42
2023-04-23T08:48:25.414Z,17.49
2023-04-23T08:50:54.016Z,17.54
2023-04-23T08:53:28.111Z,17.53
2023-04-23T08:55:58.749Z,17.60
2023-04-23T08:58:28.444Z,17.58
2023-04-23T09:00:58.163Z,17.62
2023-04-23T09:03:30.290Z,17.63
2023-04-23T09:05:59.348Z,17.67
2023-04-23T09:08:28.362Z,17.74
2023-04-23T09:11:02.465Z,17.82
2023-04-23T09:13:32.799Z,17.86
2023-04-23T09:16:01.632Z,17.86
2023-04-23T09:18:32.545Z,17.88
2023-04-23T09:21:04.319Z,17.87
2023-04-23T09:23:34.631Z,18.02
2023-04-23T09:26:08.072Z,18.08
2023-04-23T09:28:37.568Z,18.13
2023-04-23T09:31:18.006Z,18.15
2023-04-23T09:33:53.810Z,18.24
2023-04-23T09:36:24.093Z,18.20
2023-04-23T09:38:57.632Z,18.26
2023-04-23T09:41:28.263Z,18.37
2023-04-23T09:43:58.234Z,18.30
2023-04-23T09:46:38.057Z,18.39
2023-04-23T09:49:10.388Z,18.48
2023-04-23T09:51:40.731Z,18.53
2023-04-23T09:54:15.024Z,18.64
2023-04-23T09:56:44.983Z,18.63
2023-04-23T09:59:39.488Z,18.59
2023-04-23T10:02:14.585Z,18.80
2023-04-23T10:04:45.397Z,18.68
2023-04-23T10:09:46.417Z,18.69
2023-04-23T10:14:51.041Z,18.68
2023-04-23T10:17:19.860Z,18.72
2023-04-23T10:19:52.864Z,18.73
2023-04-23T10:22:24.282Z,18.74
2023-04-23T10:24:58.719Z,18.73
2023-04-23T10:27:44.527Z,18.77
2023-04-23T10:30:19.963Z,18.67
2023-04-23T10:32:50.603Z,18.88
2023-04-23T10:35:20.801Z,18.88
2023-04-23T10:37:51.536Z,18.87
2023-04-23T10:40:28.599Z,18.85
2023-04-23T10:43:17.430Z,18.85
2023-04-23T10:45:55.277Z,18.83
2023-04-23T10:48:24.224Z,18.78
2023-04-23T10:53:33.479Z,18.96
2023-04-23T10:56:09.394Z,18.98
2023-04-23T10:58:53.098Z,19.01
2023-04-23T11:01:25.634Z,18.95
2023-04-23T11:03:55.186Z,18.92
2023-04-23T11:06:59.828Z,19.00
2023-04-23T11:09:41.775Z,19.03
2023-04-23T11:12:13.951Z,18.96
2023-04-23T11:14:50.146Z,19.04
2023-04-23T11:17:23.534Z,18.91
2023-04-23T11:20:11.500Z,19.06
2023-04-23T11:22:44.602Z,19.10
2023-04-23T11:25:16.028Z,18.93
2023-04-23T11:27:46.504Z,19.16
2023-04-23T11:30:17.857Z,19.33
2023-04-23T11:32:49.453Z,19.39
2023-04-23T11:35:20.208Z,19.45
2023-04-23T11:37:51.353Z,19.49
2023-04-23T11:40:21.440Z,19.44
2023-04-23T11:42:54.961Z,19.44
2023-04-23T11:45:27.644Z,19.49
2023-04-23T11:48:02.337Z,19.49
2023-04-23T11:50:35.594Z,19.38
2023-04-23T11:53:10.611Z,19.44
2023-04-23T11:55:43.948Z,19.53
2023-04-23T11:58:12.812Z,19.63
2023-04-23T12:00:41.760Z,19.45
2023-04-23T12:03:10.801Z,19.40
2023-04-23T12:05:45.461Z,19.43
2023-04-23T12:08:18.777Z,19.49
2023-04-23T12:10:51.021Z,19.63
2023-04-23T12:13:23.381Z,19.57
2023-04-23T12:15:56.605Z,19.54
2023-04-23T12:18:30.127Z,19.56
2023-04-23T12:21:06.118Z,19.28
2023-04-23T12:23:38.399Z,19.26
2023-04-23T12:26:13.803Z,19.33
2023-04-23T12:28:48.463Z,19.15
2023-04-23T12:31:22.041Z,19.31
2023-04-23T12:33:59.562Z,19.57
2023-04-23T12:36:33.429Z,19.47
2023-04-23T12:39:30.912Z,19.61
2023-04-23T12:42:02.977Z,19.65
2023-04-23T12:44:34.537Z,19.81
2023-04-23T12:47:07.479Z,19.84
2023-04-23T12:49:40.168Z,19.82
2023-04-23T12:52:12.093Z,19.84
2023-04-23T12:54:44.831Z,19.95
2023-04-23T12:57:14.910Z,19.95
2023-04-23T12:59:43.918Z,19.85
2023-04-23T13:02:12.915Z,19.51
2023-04-23T13:04:41.613Z,19.79
2023-04-23T13:07:10.733Z,19.81
2023-04-23T13:09:39.368Z,19.85
2023-04-23T13:12:09.494Z,19.91
2023-04-23T13:14:38.162Z,19.94
2023-04-23T13:17:07.610Z,19.75
2023-04-23T13:19:38.025Z,19.90
2023-04-23T13:22:07.414Z,19.86
2023-04-23T13:24:36.189Z,20.03
2023-04-23T13:27:05.141Z,20.01
2023-04-23T13:29:35.311Z,20.00
2023-04-23T13:32:04.543Z,19.98
2023-04-23T13:34:34.154Z,19.73
2023-04-23T13:37:05.835Z,19.82
2023-04-23T13:39:34.548Z,19.96
2023-04-23T13:42:09.509Z,20.08
2023-04-23T13:44:40.419Z,20.12
2023-04-23T13:47:09.223Z,20.21
2023-04-23T13:49:37.971Z,20.25
2023-04-23T13:52:07.598Z,20.34
2023-04-23T13:54:36.712Z,20.29
2023-04-23T13:57:05.840Z,20.28
2023-04-23T13:59:34.568Z,20.30
2023-04-23T14:02:05.142Z,20.42
2023-04-23T14:04:33.962Z,20.38
2023-04-23T14:07:02.809Z,20.42
2023-04-23T14:09:31.517Z,20.43
2023-04-23T14:12:01.475Z,20.38
2023-04-23T14:14:30.716Z,20.38
2023-04-23T14:16:59.595Z,20.43
2023-04-23T14:19:30.556Z,20.35
2023-04-23T14:21:59.339Z,20.38
2023-04-23T14:24:34.474Z,20.41
2023-04-23T14:27:05.201Z,20.45
2023-04-23T14:29:41.890Z,20.58
2023-04-23T14:32:10.860Z,20.65
2023-04-23T14:34:40.930Z,20.89
2023-04-23T14:37:09.713Z,21.14
2023-04-23T14:39:40.019Z,21.44
2023-04-23T14:42:10.945Z,21.75
2023-04-23T14:44:41.124Z,22.14
2023-04-23T14:47:12.659Z,22.35
2023-04-23T14:49:42.937Z,22.56
2023-04-23T14:52:11.929Z,22.73
2023-04-23T14:54:40.595Z,22.68
2023-04-23T14:57:09.294Z,22.73
2023-04-23T14:59:37.961Z,22.86
2023-04-23T15:02:06.856Z,23.11
2023-04-23T15:04:36.963Z,23.20
2023-04-23T15:07:07.203Z,23.32
2023-04-23T15:09:35.969Z,23.42
2023-04-23T15:12:26.370Z,23.50
2023-04-23T15:14:57.056Z,23.64
2023-04-23T15:17:25.773Z,23.74
2023-04-23T15:19:56.582Z,23.92
2023-04-23T15:22:28.906Z,24.09
2023-04-23T15:24:57.616Z,24.11
2023-04-23T15:27:26.345Z,24.19
2023-04-23T15:29:54.995Z,24.31
2023-04-23T15:32:23.803Z,24.41
2023-04-23T15:34:52.501Z,24.44
2023-04-23T15:37:23.613Z,24.45
2023-04-23T15:39:53.742Z,24.50
2023-04-23T15:42:25.321Z,24.55
2023-04-23T15:44:55.968Z,24.67
2023-04-23T15:47:25.163Z,24.77
2023-04-23T15:51:32.986Z,24.83
2023-04-23T15:59:28.702Z,24.80
2023-04-23T16:02:25.486Z,24.73
2023-04-23T16:04:55.417Z,24.71
2023-04-23T16:07:24.601Z,24.55
2023-04-23T16:09:53.662Z,24.50
2023-04-23T16:12:27.875Z,24.48
2023-04-23T16:14:59.618Z,24.67
2023-04-23T16:17:32.042Z,24.86
2023-04-23T16:20:06.456Z,24.86
2023-04-23T16:22:36.075Z,24.88
2023-04-23T16:25:05.964Z,24.69
2023-04-23T16:27:35.091Z,24.33
2023-04-23T16:30:06.177Z,23.99
2023-04-23T16:32:36.349Z,23.65
2023-04-23T16:35:16.408Z,23.29
2023-04-23T16:37:45.327Z,22.83
2023-04-23T16:40:15.500Z,22.61
2023-04-23T16:42:44.558Z,22.35
2023-04-23T16:45:15.040Z,21.99
2023-04-23T16:47:45.117Z,21.89
2023-04-23T16:50:13.955Z,21.75
2023-04-23T16:52:46.659Z,21.59
2023-04-23T16:55:18.431Z,21.24
2023-04-23T16:57:49.157Z,20.88
2023-04-23T17:00:22.468Z,20.33
2023-04-23T17:02:51.334Z,19.78
2023-04-23T17:05:23.915Z,19.28
2023-04-23T17:07:53.344Z,18.82
2023-04-23T17:10:22.093Z,18.64
2023-04-23T17:12:53.971Z,18.23
2023-04-23T17:15:24.186Z,18.03
2023-04-23T17:17:53.772Z,17.77
2023-04-23T17:20:22.870Z,17.62
2023-04-23T17:22:51.720Z,17.45
2023-04-23T17:25:20.646Z,17.23
2023-04-23T17:27:49.353Z,17.07
2023-04-23T17:30:18.043Z,16.95
2023-04-23T17:32:48.265Z,16.69
2023-04-23T17:35:17.653Z,16.47
2023-04-23T17:37:46.299Z,16.34
2023-04-23T17:40:15.140Z,16.18
2023-04-23T17:42:43.942Z,16.05
2023-04-23T17:45:13.278Z,15.96
2023-04-23T17:47:42.128Z,15.89
2023-04-23T17:50:13.407Z,15.90
2023-04-23T17:52:42.280Z,15.89
2023-04-23T17:55:11.316Z,15.80
2023-04-23T17:57:40.113Z,15.74
2023-04-23T18:00:12.325Z,15.70
2023-04-23T18:02:41.987Z,15.62
2023-04-23T18:05:14.611Z,15.58
2023-04-23T18:07:46.097Z,15.54
2023-04-23T18:10:14.905Z,15.51
2023-04-23T18:12:43.630Z,15.51
2023-04-23T18:15:12.674Z,15.49
2023-04-23T18:17:41.914Z,15.48
2023-04-23T18:20:13.499Z,15.41
2023-04-23T18:22:42.503Z,15.46
2023-04-23T18:25:12.766Z,15.37
2023-04-23T18:27:42.400Z,15.33
2023-04-23T18:30:11.999Z,15.21
2023-04-23T18:32:48.392Z,15.14
2023-04-23T18:35:19.413Z,15.04
2023-04-23T18:37:54.613Z,14.96
2023-04-23T18:40:23.858Z,15.04
2023-04-23T18:42:52.758Z,15.04
2023-04-23T18:45:21.438Z,14.97
2023-04-23T18:47:57.511Z,14.94
2023-04-23T18:50:39.134Z,14.89
2023-04-23T18:53:07.813Z,14.81
2023-04-23T18:55:38.859Z,14.76
2023-04-23T18:58:10.692Z,14.73
2023-04-23T19:00:39.440Z,14.70
2023-04-23T19:03:19.949Z,14.61
2023-04-23T19:05:55.932Z,14.56
2023-04-23T19:08:29.763Z,14.55
2023-04-23T19:10:59.167Z,14.54
2023-04-23T19:13:27.834Z,14.52
2023-04-23T19:15:56.974Z,14.41
2023-04-23T19:18:26.047Z,14.46
2023-04-23T19:20:56.297Z,14.42
2023-04-23T19:23:24.964Z,14.43
2023-04-23T19:25:53.720Z,14.39
2023-04-23T19:28:24.516Z,14.30
2023-04-23T19:30:53.575Z,14.22
2023-04-23T19:33:22.284Z,14.22
2023-04-23T19:35:51.193Z,14.11
2023-04-23T19:38:21.440Z,14.04
2023-04-23T19:40:51.225Z,13.95
2023-04-23T19:43:20.176Z,13.91
2023-04-23T19:45:48.855Z,13.80
2023-04-23T19:48:17.754Z,13.81
2023-04-23T19:50:46.431Z,13.77
2023-04-23T19:53:15.423Z,13.66
2023-04-23T19:55:45.515Z,13.58
2023-04-23T19:58:16.020Z,13.57
2023-04-23T20:00:45.006Z,13.55
2023-04-23T20:03:13.933Z,13.57
2023-04-23T20:05:44.901Z,13.54
2023-04-23T20:08:25.570Z,13.44
2023-04-23T20:10:56.306Z,13.36
2023-04-23T20:13:25.504Z,13.30
2023-04-23T20:15:55.183Z,13.24
2023-04-23T20:18:25.725Z,13.24
2023-04-23T20:20:54.530Z,13.18
2023-04-23T20:23:23.333Z,13.15
2023-04-23T20:25:52.061Z,13.14
2023-04-23T20:28:22.074Z,13.14
2023-04-23T20:30:50.783Z,13.12
2023-04-23T20:33:19.840Z,13.17
2023-04-23T20:35:48.693Z,13.19
2023-04-23T20:38:19.363Z,13.26
2023-04-23T20:40:48.442Z,13.25
2023-04-23T20:43:17.472Z,13.34
2023-04-23T20:45:47.699Z,13.36
2023-04-23T20:48:16.845Z,13.39
2023-04-23T20:50:45.886Z,13.39
2023-04-23T20:53:14.687Z,13.40
2023-04-23T20:55:43.287Z,13.36
2023-04-23T20:58:11.933Z,13.35
2023-04-23T21:00:41.609Z,13.30
2023-04-23T21:03:11.935Z,13.30
2023-04-23T21:05:44.358Z,13.23
2023-04-23T21:08:14.106Z,13.20
2023-04-23T21:10:43.686Z,13.21
2023-04-23T21:13:13.160Z,13.23
2023-04-23T21:15:42.058Z,13.26
2023-04-23T21:18:12.517Z,13.33
2023-04-23T21:20:41.263Z,13.43
2023-04-23T21:23:12.102Z,13.35
2023-04-23T21:25:41.506Z,13.34
2023-04-23T21:28:11.076Z,13.24
2023-04-23T21:30:49.594Z,13.19
2023-04-23T21:33:21.453Z,13.11
2023-04-23T21:35:51.904Z,13.06
2023-04-23T21:38:21.848Z,13.02
2023-04-23T21:40:50.527Z,12.95
2023-04-23T21:43:19.299Z,12.91
2023-04-23T21:45:48.060Z,12.89
2023-04-23T21:48:16.857Z,12.84
2023-04-23T21:50:48.195Z,12.79
2023-04-23T21:53:16.920Z,12.70
2023-04-23T21:55:45.819Z,12.71
2023-04-23T21:58:17.722Z,12.62
2023-04-23T22:00:48.045Z,12.62
2023-04-23T22:03:22.625Z,12.57
2023-04-23T22:06:08.117Z,12.53
2023-04-23T22:08:40.390Z,12.44
2023-04-23T22:11:09.941Z,12.45
2023-04-23T22:13:38.614Z,12.40
2023-04-23T22:16:20.361Z,12.42
2023-04-23T22:18:53.826Z,12.36
2023-04-23T22:21:24.198Z,12.33
2023-04-23T22:23:53.010Z,12.33
2023-04-23T22:26:21.964Z,12.29
2023-04-23T22:28:50.915Z,12.32
2023-04-23T22:31:19.617Z,12.29
2023-04-23T22:33:48.303Z,12.27
2023-04-23T22:36:17.005Z,12.25
2023-04-23T22:38:47.158Z,12.22
2023-04-23T22:41:15.920Z,12.19
2023-04-23T22:43:44.651Z,12.19
2023-04-23T22:46:13.629Z,12.16
2023-04-23T22:48:44.850Z,12.14
2023-04-23T22:51:13.869Z,12.11
2023-04-23T22:53:42.585Z,12.05
2023-04-23T22:56:13.040Z,12.03
2023-04-23T22:58:41.906Z,12.01
2023-04-23T23:01:11.123Z,11.94
2023-04-23T23:03:39.960Z,11.94
2023-04-23T23:06:08.935Z,11.90
2023-04-23T23:08:37.736Z,11.88
2023-04-23T23:11:06.556Z,11.85
2023-04-23T23:13:37.144Z,11.87
2023-04-23T23:16:06.452Z,11.79
2023-04-23T23:18:35.200Z,11.83
2023-04-23T23:21:04.024Z,11.82
2023-04-23T23:23:32.815Z,11.73
2023-04-23T23:26:03.841Z,11.75
2023-04-23T23:28:32.665Z,11.70
2023-04-23T23:31:03.008Z,11.67
2023-04-23T23:33:31.962Z,11.68
2023-04-23T23:36:00.776Z,11.63
2023-04-23T23:38:29.697Z,11.59
2023-04-23T23:40:58.607Z,11.51
2023-04-23T23:43:27.351Z,11.55
2023-04-23T23:45:56.079Z,11.51
2023-04-23T23:48:26.794Z,11.51
2023-04-23T23:50:55.608Z,11.46
2023-04-23T23:53:24.272Z,11.42
2023-04-23T23:55:52.921Z,11.41
2023-04-23T23:58:21.778Z,11.46
